createdAt,value
2022-08-24T00:02:28.638Z,100665.16
2022-08-24T00:05:17.861Z,100661.44
2022-08-24T00:08:06.391Z,100663.94
2022-08-24T00:10:56.240Z,100667.66
2022-08-24T00:13:45.369Z,100660.22
2022-08-24T00:16:35.402Z,100668.88
2022-08-24T00:19:24.167Z,100666.19
2022-08-24T00:22:13.303Z,100668.88
2022-08-24T00:25:01.894Z,100675.88
2022-08-24T00:27:52.142Z,100670.50
2022-08-24T00:30:40.756Z,100668.47
2022-08-24T00:33:29.315Z,100666.81
2022-08-24T00:36:21.991Z,100673.84
2022-08-24T00:39:10.623Z,100662.28
2022-08-24T00:41:59.206Z,100663.31
2022-08-24T00:44:49.089Z,100668.47
2022-08-24T00:47:47.776Z,100665.56
2022-08-24T00:50:39.535Z,100665.16
2022-08-24T00:53:32.400Z,100661.44
2022-08-24T00:56:23.693Z,100664.13
2022-08-24T00:59:14.666Z,100660.63
2022-08-24T01:02:15.851Z,100656.91
2022-08-24T01:05:08.333Z,100662.09
2022-08-24T01:07:56.902Z,100657.53
2022-08-24T01:10:50.729Z,100658.75
2022-08-24T01:13:39.489Z,100663.13
2022-08-24T01:16:45.369Z,100670.31
2022-08-24T01:19:38.907Z,100670.13
2022-08-24T01:22:54.560Z,100670.13
2022-08-24T01:25:45.568Z,100674.44
2022-08-24T01:28:36.973Z,100669.72
2022-08-24T01:31:26.355Z,100666.41
2022-08-24T01:34:15.051Z,100673.41
2022-08-24T01:37:04.640Z,100669.09
2022-08-24T01:39:55.557Z,100661.84
2022-08-24T01:42:50.959Z,100666.41
2022-08-24T01:45:39.623Z,100668.47
2022-08-24T01:48:28.216Z,100666.41
2022-08-24T01:51:16.806Z,100654.84
2022-08-24T01:54:06.927Z,100659.41
2022-08-24T01:56:55.582Z,100662.69
2022-08-24T01:59:45.924Z,100656.50
2022-08-24T02:02:34.555Z,100657.34
2022-08-24T02:05:26.139Z,100659.16
2022-08-24T02:08:14.787Z,100651.97
2022-08-24T02:11:04.133Z,100650.31
2022-08-24T02:13:52.737Z,100655.69
2022-08-24T02:16:43.182Z,100650.31
2022-08-24T02:19:31.859Z,100657.34
2022-08-24T02:22:20.425Z,100659.16
2022-08-24T02:25:09.757Z,100660.00
2022-08-24T02:28:02.899Z,100652.16
2022-08-24T02:30:51.712Z,100657.34
2022-08-24T02:33:42.809Z,100653.66
2022-08-24T02:36:31.505Z,100654.66
2022-08-24T02:39:20.038Z,100656.50
2022-08-24T02:42:08.819Z,100653.66
2022-08-24T02:44:57.349Z,100655.50
2022-08-24T02:47:45.988Z,100647.44
2022-08-24T02:50:40.195Z,100659.00
2022-08-24T02:53:28.751Z,100659.00
2022-08-24T02:56:18.135Z,100657.56
2022-08-24T02:59:06.662Z,100667.84
2022-08-24T03:01:55.282Z,100673.03
2022-08-24T03:04:43.891Z,100678.38
2022-08-24T03:07:39.807Z,100676.75
2022-08-24T03:10:28.297Z,100680.47
2022-08-24T03:13:17.332Z,100687.47
2022-08-24T03:16:06.334Z,100675.91
2022-08-24T03:18:54.950Z,100683.75
2022-08-24T03:21:43.620Z,100685.81
2022-08-24T03:24:33.920Z,100688.66
2022-08-24T03:27:22.489Z,100693.22
2022-08-24T03:30:13.868Z,100689.50
2022-08-24T03:33:02.503Z,100686.22
2022-08-24T03:35:51.197Z,100691.56
2022-08-24T03:38:39.689Z,100696.94
2022-08-24T03:41:29.772Z,100698.56
2022-08-24T03:44:23.313Z,100698.56
2022-08-24T03:47:12.119Z,100695.69
2022-08-24T03:50:00.668Z,100697.75
2022-08-24T03:52:49.538Z,100696.72
2022-08-24T03:55:38.032Z,100698.56
2022-08-24T03:58:28.299Z,100701.47
2022-08-24T04:01:18.040Z,100720.03
2022-08-24T04:04:07.391Z,100721.66
2022-08-24T04:06:55.867Z,100714.66
2022-08-24T04:09:44.483Z,100714.66
2022-08-24T04:12:32.961Z,100717.34
2022-08-24T04:15:24.507Z,100727.03
2022-08-24T04:18:13.201Z,100726.19
2022-08-24T04:21:04.675Z,100717.16
2022-08-24T04:23:53.614Z,100715.47
2022-08-24T04:26:45.152Z,100721.66
2022-08-24T04:29:34.426Z,100714.66
2022-08-24T04:32:24.507Z,100712.19
2022-08-24T04:35:13.073Z,100718.38
2022-08-24T04:38:01.569Z,100713.00
2022-08-24T04:40:50.162Z,100713.00
2022-08-24T04:43:39.207Z,100713.00
2022-08-24T04:46:29.441Z,100718.00
2022-08-24T04:49:19.391Z,100718.00
2022-08-24T04:52:08.174Z,100721.66
2022-08-24T04:54:56.765Z,100721.66
2022-08-24T04:57:45.461Z,100726.84
2022-08-24T05:00:36.852Z,100727.69
2022-08-24T05:03:25.439Z,100725.84
2022-08-24T05:06:16.497Z,100740.44
2022-08-24T05:09:06.786Z,100737.75
2022-08-24T05:11:55.642Z,100732.41
2022-08-24T05:14:44.143Z,100738.59
2022-08-24T05:17:33.816Z,100745.41
2022-08-24T05:20:22.465Z,100751.38
2022-08-24T05:23:12.849Z,100745.59
2022-08-24T05:26:06.787Z,100747.47
2022-08-24T05:28:56.434Z,100744.59
2022-08-24T05:31:46.363Z,100742.91
2022-08-24T05:34:35.337Z,100748.69
2022-08-24T05:37:24.624Z,100751.19
2022-08-24T05:40:17.836Z,100750.16
2022-08-24T05:43:06.518Z,100748.09
2022-08-24T05:45:55.287Z,100750.56
2022-08-24T05:48:43.850Z,100753.88
2022-08-24T05:51:42.674Z,100763.13
2022-08-24T05:54:31.286Z,100756.34
2022-08-24T05:57:21.392Z,100764.59
2022-08-24T06:00:11.904Z,100763.56
2022-08-24T06:03:00.569Z,100762.53
2022-08-24T06:05:49.313Z,100764.59
2022-08-24T06:08:41.535Z,100764.59
2022-08-24T06:11:32.637Z,100775.31
2022-08-24T06:14:26.811Z,100763.13
2022-08-24T06:17:15.791Z,100769.53
2022-08-24T06:20:05.350Z,100767.69
2022-08-24T06:22:53.896Z,100764.16
2022-08-24T06:26:00.028Z,100769.94
2022-08-24T06:28:48.659Z,100775.75
2022-08-24T06:31:41.825Z,100768.94
2022-08-24T06:34:30.678Z,100767.28
2022-08-24T06:37:19.470Z,100769.72
2022-08-24T06:40:10.295Z,100769.94
2022-08-24T06:43:04.323Z,100775.72
2022-08-24T06:45:53.312Z,100772.81
2022-08-24T06:48:43.294Z,100782.06
2022-08-24T06:51:32.442Z,100785.38
2022-08-24T06:54:21.816Z,100783.09
2022-08-24T06:57:10.412Z,100776.91
2022-08-24T06:59:59.098Z,100781.00
2022-08-24T07:02:47.681Z,100783.06
2022-08-24T07:05:37.867Z,100784.72
2022-08-24T07:08:28.304Z,100785.56
2022-08-24T07:11:18.694Z,100788.44
2022-08-24T07:14:07.798Z,100797.94
2022-08-24T07:16:56.469Z,100790.09
2022-08-24T07:19:45.956Z,100797.09
2022-08-24T07:22:35.873Z,100798.97
2022-08-24T07:25:24.512Z,100792.56
2022-08-24T07:28:14.582Z,100794.22
2022-08-24T07:31:04.645Z,100796.69
2022-08-24T07:33:53.264Z,100793.38
2022-08-24T07:36:44.466Z,100799.16
2022-08-24T07:39:34.616Z,100797.94
2022-08-24T07:42:31.237Z,100797.53
2022-08-24T07:45:20.783Z,100796.50
2022-08-24T07:48:11.683Z,100796.50
2022-08-24T07:51:08.561Z,100795.88
2022-08-24T07:53:57.103Z,100794.66
2022-08-24T07:56:47.243Z,100810.31
2022-08-24T07:59:36.358Z,100804.53
2022-08-24T08:02:29.541Z,100801.47
2022-08-24T08:05:24.977Z,100806.25
2022-08-24T08:08:13.658Z,100801.28
2022-08-24T08:11:02.666Z,100808.94
2022-08-24T08:13:54.209Z,100805.84
2022-08-24T08:16:42.835Z,100815.53
2022-08-24T08:19:32.419Z,100816.78
2022-08-24T08:22:38.723Z,100810.38
2022-08-24T08:25:27.247Z,100812.03
2022-08-24T08:28:25.300Z,100807.69
2022-08-24T08:31:16.153Z,100810.38
2022-08-24T08:34:05.162Z,100815.34
2022-08-24T08:36:54.202Z,100822.38
2022-08-24T08:39:43.119Z,100820.28
2022-08-24T08:42:58.066Z,100825.25
2022-08-24T08:46:06.481Z,100820.72
2022-08-24T08:49:24.602Z,100823.78
2022-08-24T08:52:40.025Z,100816.56
2022-08-24T08:55:32.817Z,100823.41
2022-08-24T08:58:39.359Z,100818.66
2022-08-24T09:01:33.381Z,100820.50
2022-08-24T09:04:39.700Z,100811.41
2022-08-24T09:07:37.471Z,100812.44
2022-08-24T09:10:44.076Z,100821.75
2022-08-24T09:13:46.702Z,100814.50
2022-08-24T09:16:51.893Z,100804.63
2022-08-24T09:19:52.170Z,100804.38
2022-08-24T09:22:43.483Z,100802.13
2022-08-24T09:25:39.939Z,100813.69
2022-08-24T09:28:37.715Z,100806.28
2022-08-24T09:31:51.874Z,100805.03
2022-08-24T09:34:51.392Z,100806.25
2022-08-24T09:37:56.689Z,100809.13
2022-08-24T09:41:03.185Z,100808.31
2022-08-24T09:44:14.582Z,100805.03
2022-08-24T09:47:24.263Z,100805.03
2022-08-24T09:50:28.401Z,100798.63
2022-08-24T09:53:33.918Z,100798.38
2022-08-24T09:56:40.337Z,100792.66
2022-08-24T09:59:48.899Z,100793.47
2022-08-24T10:02:57.159Z,100791.19
2022-08-24T10:06:05.496Z,100788.47
2022-08-24T10:09:11.681Z,100786.63
2022-08-24T10:12:06.080Z,100782.72
2022-08-24T10:14:56.506Z,100786.66
2022-08-24T10:17:56.814Z,100779.59
2022-08-24T10:20:58.157Z,100782.91
2022-08-24T10:24:07.100Z,100781.97
2022-08-24T10:27:08.492Z,100781.72
2022-08-24T10:30:11.830Z,100780.53
2022-08-24T10:33:10.885Z,100776.78
2022-08-24T10:36:33.005Z,100770.63
2022-08-24T10:39:42.844Z,100776.41
2022-08-24T10:43:03.792Z,100775.56
2022-08-24T10:46:10.209Z,100776.78
2022-08-24T10:49:43.906Z,100770.59
2022-08-24T10:53:09.906Z,100771.81
2022-08-24T10:56:08.376Z,100768.16
2022-08-24T10:59:04.846Z,100773.09
2022-08-24T11:02:12.326Z,100777.44
2022-08-24T11:05:03.622Z,100768.13
2022-08-24T11:07:59.470Z,100773.41
2022-08-24T11:10:49.209Z,100772.72
2022-08-24T11:13:51.388Z,100774.25
2022-08-24T11:16:42.782Z,100775.34
2022-08-24T11:19:33.181Z,100771.25
2022-08-24T11:22:41.022Z,100773.81
2022-08-24T11:25:32.144Z,100771.09
2022-08-24T11:28:27.294Z,100776.53
2022-08-24T11:31:23.578Z,100776.91
2022-08-24T11:34:17.677Z,100777.31
2022-08-24T11:37:15.668Z,100783.88
2022-08-24T11:40:05.920Z,100779.19
2022-08-24T11:43:08.424Z,100779.63
2022-08-24T11:46:05.733Z,100767.72
2022-08-24T11:49:04.838Z,100785.06
2022-08-24T11:51:56.890Z,100775.22
2022-08-24T11:54:48.027Z,100768.69
2022-08-24T11:57:39.330Z,100775.72
2022-08-24T12:00:44.968Z,100781.03
2022-08-24T12:03:49.371Z,100778.03
2022-08-24T12:06:49.362Z,100776.06
2022-08-24T12:09:48.830Z,100774.78
2022-08-24T12:12:40.944Z,100776.56
2022-08-24T12:15:38.970Z,100772.81
2022-08-24T12:18:32.198Z,100772.97
2022-08-24T12:21:23.189Z,100767.13
2022-08-24T12:24:16.538Z,100763.06
2022-08-24T12:27:10.762Z,100758.19
2022-08-24T12:30:05.250Z,100762.97
2022-08-24T12:32:57.891Z,100757.69
2022-08-24T12:35:49.472Z,100766.22
2022-08-24T12:38:41.024Z,100758.66
2022-08-24T12:41:33.650Z,100769.06
2022-08-24T12:44:25.468Z,100761.47
2022-08-24T12:47:19.365Z,100753.25
2022-08-24T12:50:13.141Z,100748.94
2022-08-24T12:53:30.294Z,100746.94
2022-08-24T12:56:44.359Z,100745.50
2022-08-24T12:59:36.920Z,100741.84
2022-08-24T13:02:32.866Z,100739.59
2022-08-24T13:05:22.205Z,100742.97
2022-08-24T13:08:13.280Z,100745.91
2022-08-24T13:11:06.343Z,100746.16
2022-08-24T13:14:18.630Z,100750.03
2022-08-24T13:17:13.081Z,100753.44
2022-08-24T13:20:20.746Z,100761.13
2022-08-24T13:23:18.802Z,100752.00
2022-08-24T13:26:26.566Z,100751.97
2022-08-24T13:29:18.355Z,100751.16
2022-08-24T13:32:07.537Z,100751.19
2022-08-24T13:34:58.425Z,100753.03
2022-08-24T13:38:30.530Z,100750.78
2022-08-24T13:41:46.805Z,100749.31
2022-08-24T13:44:53.978Z,100747.00
2022-08-24T13:47:59.903Z,100753.25
2022-08-24T13:51:16.879Z,100741.28
2022-08-24T13:54:20.223Z,100747.88
2022-08-24T13:57:26.492Z,100742.50
2022-08-24T14:00:39.316Z,100748.50
2022-08-24T14:03:46.168Z,100738.47
2022-08-24T14:06:39.212Z,100741.19
2022-08-24T14:09:38.156Z,100739.38
2022-08-24T14:12:54.078Z,100735.06
2022-08-24T14:16:11.274Z,100728.44
2022-08-24T14:19:06.426Z,100733.59
2022-08-24T14:22:00.799Z,100735.44
2022-08-24T14:24:58.570Z,100737.25
2022-08-24T14:27:50.947Z,100739.00
2022-08-24T14:30:43.656Z,100733.69
2022-08-24T14:33:35.234Z,100731.69
2022-08-24T14:36:45.986Z,100739.69
2022-08-24T14:39:38.519Z,100736.63
2022-08-24T14:42:37.220Z,100726.94
2022-08-24T14:45:50.272Z,100730.41
2022-08-24T14:48:50.313Z,100723.41
2022-08-24T14:52:05.848Z,100720.09
2022-08-24T14:55:05.570Z,100713.75
2022-08-24T14:58:08.187Z,100729.19
2022-08-24T15:01:08.266Z,100719.72
2022-08-24T15:04:08.503Z,100704.81
2022-08-24T15:06:58.900Z,100718.09
2022-08-24T15:09:48.109Z,100712.50
2022-08-24T15:12:39.441Z,100706.50
2022-08-24T15:15:34.064Z,100700.31
2022-08-24T15:18:28.422Z,100702.38
2022-08-24T15:21:28.054Z,100701.16
2022-08-24T15:27:19.755Z,100698.66
2022-08-24T15:30:18.552Z,100704.88
2022-08-24T15:33:11.097Z,100696.34
2022-08-24T15:36:09.713Z,100700.72
2022-08-24T15:38:59.703Z,100700.66
2022-08-24T15:41:48.258Z,100701.72
2022-08-24T15:44:37.882Z,100698.56
2022-08-24T15:47:30.252Z,100698.31
2022-08-24T15:50:23.731Z,100691.66
2022-08-24T15:53:31.239Z,100688.75
2022-08-24T15:56:35.936Z,100679.19
2022-08-24T15:59:29.467Z,100691.22
2022-08-24T16:02:29.244Z,100683.88
2022-08-24T16:05:21.825Z,100684.75
2022-08-24T16:08:13.357Z,100675.22
2022-08-24T16:11:10.848Z,100683.66
2022-08-24T16:14:01.088Z,100676.84
2022-08-24T16:16:54.145Z,100680.94
2022-08-24T16:19:42.715Z,100678.88
2022-08-24T16:22:34.835Z,100677.78
2022-08-24T16:25:27.269Z,100687.69
2022-08-24T16:28:35.761Z,100683.88
2022-08-24T16:31:52.828Z,100691.09
2022-08-24T16:34:42.998Z,100684.50
2022-08-24T16:37:32.272Z,100684.34
2022-08-24T16:40:20.954Z,100683.94
2022-08-24T16:43:09.563Z,100690.34
2022-08-24T16:45:58.285Z,100680.81
2022-08-24T16:48:48.157Z,100678.31
2022-08-24T16:51:36.676Z,100683.94
2022-08-24T16:54:32.241Z,100684.31
2022-08-24T16:57:24.346Z,100687.38
2022-08-24T17:00:17.331Z,100685.41
2022-08-24T17:03:06.618Z,100676.53
2022-08-24T17:05:56.690Z,100677.91
2022-08-24T17:08:45.220Z,100672.88
2022-08-24T17:11:34.465Z,100673.25
2022-08-24T17:14:22.971Z,100675.41
2022-08-24T17:17:13.728Z,100680.47
2022-08-24T17:20:02.280Z,100686.69
2022-08-24T17:22:52.148Z,100679.63
2022-08-24T17:25:41.851Z,100697.50
2022-08-24T17:28:30.716Z,100692.75
2022-08-24T17:31:19.248Z,100692.16
2022-08-24T17:34:08.704Z,100696.78
2022-08-24T17:36:57.869Z,100704.22
2022-08-24T17:39:48.505Z,100710.47
2022-08-24T17:42:52.396Z,100715.84
2022-08-24T17:45:42.410Z,100721.66
2022-08-24T17:48:34.069Z,100717.09
2022-08-24T17:51:22.678Z,100718.78
2022-08-24T17:54:11.229Z,100722.50
2022-08-24T17:57:01.276Z,100720.88
2022-08-24T17:59:50.804Z,100725.03
2022-08-24T18:02:39.539Z,100727.13
2022-08-24T18:05:29.453Z,100727.13
2022-08-24T18:08:17.959Z,100728.78
2022-08-24T18:11:06.516Z,100727.53
2022-08-24T18:13:56.378Z,100729.63
2022-08-24T18:16:54.038Z,100732.75
2022-08-24T18:19:42.854Z,100735.44
2022-08-24T18:22:31.322Z,100739.16
2022-08-24T18:25:22.907Z,100744.13
2022-08-24T18:28:11.523Z,100743.72
2022-08-24T18:31:01.403Z,100750.13
2022-08-24T18:33:49.942Z,100749.09
2022-08-24T18:36:38.635Z,100748.50
2022-08-24T18:39:27.485Z,100752.41
2022-08-24T18:42:16.135Z,100753.66
2022-08-24T18:45:05.818Z,100754.47
2022-08-24T18:47:55.641Z,100764.41
2022-08-24T18:50:44.165Z,100770.59
2022-08-24T18:53:35.472Z,100766.50
2022-08-24T18:56:24.752Z,100765.66
2022-08-24T18:59:15.126Z,100778.63
2022-08-24T19:02:31.208Z,100767.91
2022-08-24T19:05:23.947Z,100764.81
2022-08-24T19:08:12.519Z,100774.94
2022-08-24T19:11:01.065Z,100777.63
2022-08-24T19:13:49.556Z,100774.34
2022-08-24T19:16:38.247Z,100761.94
2022-08-24T19:19:26.852Z,100773.53
2022-08-24T19:22:17.302Z,100775.38
2022-08-24T19:25:06.897Z,100774.34
2022-08-24T19:27:56.009Z,100777.03
2022-08-24T19:30:46.686Z,100769.81
2022-08-24T19:33:36.621Z,100769.56
2022-08-24T19:36:25.296Z,100770.63
2022-08-24T19:39:15.234Z,100771.03
2022-08-24T19:42:04.985Z,100766.72
2022-08-24T19:45:11.493Z,100766.09
2022-08-24T19:48:00.210Z,100768.78
2022-08-24T19:50:48.664Z,100773.53
2022-08-24T19:53:38.372Z,100773.97
2022-08-24T19:56:28.251Z,100767.78
2022-08-24T19:59:21.860Z,100765.72
2022-08-24T20:02:10.413Z,100768.59
2022-08-24T20:04:59.266Z,100778.53
2022-08-24T20:07:48.473Z,100778.94
2022-08-24T20:10:37.566Z,100779.97
2022-08-24T20:13:27.490Z,100783.09
2022-08-24T20:16:18.203Z,100781.84
2022-08-24T20:19:07.227Z,100772.97
2022-08-24T20:21:55.848Z,100777.72
2022-08-24T20:24:44.469Z,100781.88
2022-08-24T20:27:33.346Z,100778.59
2022-08-24T20:30:23.431Z,100781.91
2022-08-24T20:33:16.304Z,100782.09
2022-08-24T20:36:06.020Z,100775.69
2022-08-24T20:38:55.311Z,100776.28
2022-08-24T20:41:45.394Z,100783.75
2022-08-24T20:44:33.979Z,100782.47
2022-08-24T20:47:24.095Z,100780.22
2022-08-24T20:50:12.702Z,100776.50
2022-08-24T20:53:01.240Z,100774.88
2022-08-24T20:55:50.045Z,100769.88
2022-08-24T20:58:40.221Z,100775.25
2022-08-24T21:01:28.802Z,100771.53
2022-08-24T21:04:18.654Z,100775.69
2022-08-24T21:07:07.265Z,100771.53
2022-08-24T21:09:57.352Z,100772.97
2022-08-24T21:12:46.232Z,100769.47
2022-08-24T21:15:34.985Z,100776.69
2022-08-24T21:18:23.517Z,100783.69
2022-08-24T21:21:15.524Z,100776.06
2022-08-24T21:24:04.746Z,100779.59
2022-08-24T21:26:53.622Z,100780.97
2022-08-24T21:29:42.336Z,100781.34
2022-08-24T21:32:48.462Z,100785.69
2022-08-24T21:35:38.707Z,100784.63
2022-08-24T21:38:28.658Z,100790.81
2022-08-24T21:41:17.221Z,100789.94
2022-08-24T21:44:05.926Z,100786.00
2022-08-24T21:46:54.681Z,100794.38
2022-08-24T21:49:43.306Z,100792.81
2022-08-24T21:52:31.747Z,100792.66
2022-08-24T21:55:21.739Z,100794.75
2022-08-24T21:58:10.871Z,100804.09
2022-08-24T22:00:59.775Z,100793.94
2022-08-24T22:03:48.825Z,100795.38
2022-08-24T22:06:37.270Z,100791.50
2022-08-24T22:09:27.075Z,100794.19
2022-08-24T22:12:16.908Z,100791.50
2022-08-24T22:15:06.507Z,100787.59
2022-08-24T22:17:55.308Z,100782.22
2022-08-24T22:20:43.926Z,100784.25
2022-08-24T22:23:32.463Z,100782.63
2022-08-24T22:26:20.934Z,100782.63
2022-08-24T22:29:11.880Z,100784.25
2022-08-24T22:32:00.457Z,100778.28
2022-08-24T22:34:48.978Z,100780.97
2022-08-24T22:37:37.573Z,100777.69
2022-08-24T22:40:27.180Z,100775.00
2022-08-24T22:43:15.976Z,100772.31
2022-08-24T22:46:05.908Z,100775.59
2022-08-24T22:48:54.532Z,100769.63
2022-08-24T22:51:43.061Z,100764.88
2022-08-24T22:54:32.381Z,100755.78
2022-08-24T22:57:20.797Z,100761.13
2022-08-24T23:00:10.722Z,100758.25
2022-08-24T23:03:05.153Z,100760.34
2022-08-24T23:05:53.750Z,100761.78
2022-08-24T23:08:42.341Z,100760.34
2022-08-24T23:11:32.286Z,100759.75
2022-08-24T23:14:21.890Z,100760.78
2022-08-24T23:17:10.545Z,100760.78
2022-08-24T23:20:06.211Z,100760.16
2022-08-24T23:22:56.754Z,100757.47
2022-08-24T23:25:45.271Z,100757.47
2022-08-24T23:28:33.835Z,100755.41
2022-08-24T23:31:22.947Z,100754.78
2022-08-24T23:34:12.122Z,100752.09
2022-08-24T23:37:02.670Z,100745.50
2022-08-24T23:39:51.426Z,100744.28
2022-08-24T23:42:39.973Z,100742.41
2022-08-24T23:45:30.460Z,100741.34
2022-08-24T23:48:19.176Z,100745.91
2022-08-24T23:51:09.622Z,100743.44
2022-08-24T23:53:59.629Z,100739.50
2022-08-24T23:56:49.951Z,100738.47
2022-08-24T23:59:38.745Z,100742.19
